createdAt,value
2023-09-07T04:01:17.031Z,20.70
2023-09-07T04:03:45.099Z,20.50
2023-09-07T04:06:13.202Z,20.50
2023-09-07T04:08:41.011Z,20.50
2023-09-07T04:11:13.699Z,20.50
2023-09-07T04:13:41.576Z,20.50
2023-09-07T04:16:11.355Z,20.50
2023-09-07T04:18:40.671Z,20.40
2023-09-07T04:21:08.813Z,20.40
2023-09-07T04:23:37.044Z,20.40
2023-09-07T04:26:09.559Z,20.40
2023-09-07T04:28:37.891Z,20.50
2023-09-07T04:31:07.433Z,20.50
2023-09-07T04:33:36.017Z,20.50
2023-09-07T04:36:11.288Z,20.60
2023-09-07T04:38:39.563Z,20.50
2023-09-07T04:41:08.907Z,20.50
2023-09-07T04:43:36.852Z,20.30
2023-09-07T04:46:05.513Z,20.20
2023-09-07T04:53:32.820Z,20.20
2023-09-07T04:56:00.870Z,20.20
2023-09-07T04:58:29.318Z,20.10
2023-09-07T05:01:04.814Z,20.10
2023-09-07T05:03:32.790Z,20.10
2023-09-07T05:06:01.612Z,20.10
2023-09-07T05:08:31.188Z,20.10
2023-09-07T05:11:00.426Z,20.10
2023-09-07T05:13:29.057Z,20.20
2023-09-07T05:15:57.827Z,20.20
2023-09-07T05:18:25.932Z,20.30
2023-09-07T05:20:53.918Z,20.40
2023-09-07T05:23:22.741Z,20.40
2023-09-07T05:25:53.979Z,20.40
2023-09-07T05:28:23.199Z,20.40
2023-09-07T05:30:51.576Z,20.50
2023-09-07T05:33:20.262Z,20.50
2023-09-07T05:38:16.458Z,20.50
2023-09-07T05:40:46.074Z,20.60
2023-09-07T05:43:15.244Z,20.60
2023-09-07T05:45:43.871Z,20.60
2023-09-07T05:48:11.812Z,20.70
2023-09-07T05:50:40.466Z,20.60
2023-09-07T05:53:08.389Z,20.70
2023-09-07T05:55:36.853Z,20.70
2023-09-07T05:58:07.292Z,20.70
2023-09-07T06:00:38.665Z,20.80
2023-09-07T06:03:07.316Z,20.90
2023-09-07T06:05:36.727Z,20.90
2023-09-07T06:08:05.277Z,20.90
2023-09-07T06:10:33.254Z,20.90
2023-09-07T06:13:02.436Z,20.90
2023-09-07T06:18:01.734Z,21.00
2023-09-07T06:20:29.602Z,21.00
2023-09-07T06:22:57.553Z,20.90
2023-09-07T06:25:25.591Z,20.80
2023-09-07T06:27:54.034Z,20.80
2023-09-07T06:30:21.950Z,20.80
2023-09-07T06:32:50.095Z,20.80
2023-09-07T06:35:20.475Z,20.70
2023-09-07T06:37:48.404Z,20.80
2023-09-07T06:40:18.821Z,20.80
2023-09-07T06:42:47.219Z,20.80
2023-09-07T06:45:15.050Z,20.90
2023-09-07T06:47:42.939Z,20.90
2023-09-07T06:50:11.174Z,21.00
2023-09-07T06:52:40.457Z,21.10
2023-09-07T06:57:36.889Z,21.10
2023-09-07T07:00:07.338Z,21.20
2023-09-07T07:02:35.579Z,21.20
2023-09-07T07:05:03.750Z,21.20
2023-09-07T07:07:31.933Z,21.30
2023-09-07T07:10:01.093Z,21.30
2023-09-07T07:12:29.125Z,21.40
2023-09-07T07:14:56.896Z,21.40
2023-09-07T07:17:24.742Z,21.40
2023-09-07T07:19:52.558Z,21.60
2023-09-07T07:22:22.108Z,21.60
2023-09-07T07:24:50.113Z,21.60
2023-09-07T07:27:19.296Z,21.70
2023-09-07T07:29:48.237Z,21.70
2023-09-07T07:32:16.331Z,21.60
2023-09-07T07:34:44.388Z,21.80
2023-09-07T07:37:12.366Z,21.80
2023-09-07T07:39:41.340Z,21.80
2023-09-07T07:42:09.192Z,21.80
2023-09-07T07:44:38.455Z,21.90
2023-09-07T07:47:06.453Z,21.90
2023-09-07T07:49:35.429Z,21.90
2023-09-07T07:52:03.353Z,21.10
2023-09-07T07:54:31.257Z,21.90
2023-09-07T07:56:59.124Z,22.00
2023-09-07T07:59:27.193Z,22.00
2023-09-07T08:01:56.404Z,22.00
2023-09-07T08:04:24.307Z,23.90
2023-09-07T08:06:55.481Z,22.00
2023-09-07T08:09:23.360Z,22.00
2023-09-07T08:11:52.652Z,22.10
2023-09-07T08:14:20.458Z,22.10
2023-09-07T08:16:48.504Z,22.20
2023-09-07T08:19:18.006Z,22.30
2023-09-07T08:21:47.098Z,22.30
2023-09-07T08:24:16.206Z,22.30
2023-09-07T08:29:12.989Z,22.40
2023-09-07T08:31:41.252Z,22.40
2023-09-07T08:34:12.191Z,22.40
2023-09-07T08:36:41.458Z,22.40
2023-09-07T08:39:13.716Z,22.50
2023-09-07T08:42:00.059Z,22.60
2023-09-07T08:44:31.669Z,22.60
2023-09-07T08:47:01.033Z,22.70
2023-09-07T08:49:29.430Z,22.70
2023-09-07T08:52:01.847Z,22.70
2023-09-07T08:54:30.520Z,22.70
2023-09-07T08:56:59.394Z,22.90
2023-09-07T08:59:27.260Z,22.90
2023-09-07T09:01:59.946Z,22.90
2023-09-07T09:04:29.321Z,23.00
2023-09-07T09:06:59.534Z,23.00
2023-09-07T09:09:28.465Z,23.10
2023-09-07T09:11:56.308Z,23.10
2023-09-07T09:14:24.745Z,23.10
2023-09-07T09:16:53.244Z,23.20
2023-09-07T09:19:21.384Z,23.30
2023-09-07T09:21:51.052Z,23.30
2023-09-07T09:24:20.301Z,23.30
2023-09-07T09:26:48.128Z,23.40
2023-09-07T09:29:16.884Z,23.40
2023-09-07T09:31:45.880Z,23.50
2023-09-07T09:34:14.265Z,23.50
2023-09-07T09:36:45.518Z,23.60
2023-09-07T09:39:25.723Z,23.70
2023-09-07T09:41:55.777Z,23.70
2023-09-07T09:44:26.275Z,23.70
2023-09-07T09:46:55.857Z,23.80
2023-09-07T09:49:24.837Z,24.00
2023-09-07T09:51:52.758Z,24.00
2023-09-07T09:54:20.914Z,24.00
2023-09-07T09:56:50.171Z,24.10
2023-09-07T09:59:18.141Z,24.20
2023-09-07T10:01:47.150Z,24.30
2023-09-07T10:04:18.208Z,24.30
2023-09-07T10:06:55.921Z,24.40
2023-09-07T10:09:24.089Z,24.50
2023-09-07T10:11:56.422Z,24.50
2023-09-07T10:14:24.351Z,24.50
2023-09-07T10:16:54.744Z,24.60
2023-09-07T10:19:23.972Z,24.70
2023-09-07T10:21:53.154Z,24.70
2023-09-07T10:24:26.891Z,24.80
2023-09-07T10:27:07.016Z,24.90
2023-09-07T10:29:44.513Z,24.90
2023-09-07T10:32:14.814Z,25.00
2023-09-07T10:34:44.807Z,25.10
2023-09-07T10:37:14.414Z,25.20
2023-09-07T10:39:44.476Z,25.30
2023-09-07T10:44:54.828Z,25.40
2023-09-07T10:47:23.080Z,25.40
2023-09-07T10:49:51.066Z,25.50
2023-09-07T10:52:19.057Z,25.60
2023-09-07T10:54:47.378Z,25.60
2023-09-07T10:57:15.848Z,25.70
2023-09-07T10:59:48.373Z,25.70
2023-09-07T11:02:17.897Z,25.70
2023-09-07T11:04:46.045Z,25.70
2023-09-07T11:07:14.802Z,25.80
2023-09-07T11:09:43.424Z,25.90
2023-09-07T11:12:14.744Z,25.90
2023-09-07T11:14:42.745Z,26.00
2023-09-07T11:17:12.498Z,26.10
2023-09-07T11:19:40.296Z,26.10
2023-09-07T11:22:11.428Z,26.10
2023-09-07T11:24:39.624Z,26.10
2023-09-07T11:27:07.399Z,26.20
2023-09-07T11:29:35.466Z,26.20
2023-09-07T11:32:12.202Z,26.20
2023-09-07T11:34:50.639Z,26.30
2023-09-07T11:37:19.143Z,26.30
2023-09-07T11:39:47.098Z,26.30
2023-09-07T11:42:15.059Z,26.30
2023-09-07T11:44:43.023Z,26.40
2023-09-07T11:47:12.228Z,26.40
2023-09-07T11:49:40.088Z,26.40
2023-09-07T11:52:08.523Z,26.40
2023-09-07T11:54:36.550Z,26.40
2023-09-07T11:57:04.673Z,26.40
2023-09-07T12:02:18.796Z,26.70
2023-09-07T12:04:49.109Z,26.70
2023-09-07T12:07:17.314Z,26.70
2023-09-07T12:09:45.457Z,26.70
2023-09-07T12:12:13.335Z,26.70
2023-09-07T12:14:41.137Z,26.70
2023-09-07T12:22:07.425Z,26.90
2023-09-07T12:24:35.314Z,27.00
2023-09-07T12:27:03.369Z,27.00
2023-09-07T12:29:31.488Z,27.00
2023-09-07T12:31:59.826Z,27.00
2023-09-07T12:34:28.584Z,27.00
2023-09-07T12:36:59.910Z,27.10
2023-09-07T12:39:27.935Z,27.30
2023-09-07T12:44:24.354Z,27.40
2023-09-07T12:46:52.871Z,27.40
2023-09-07T12:49:20.646Z,27.30
2023-09-07T12:51:48.981Z,27.30
2023-09-07T12:54:18.668Z,27.40
2023-09-07T12:56:47.283Z,27.40
2023-09-07T12:59:15.518Z,27.40
2023-09-07T13:01:43.551Z,27.40
2023-09-07T13:04:12.618Z,27.40
2023-09-07T13:06:40.584Z,27.50
2023-09-07T13:09:10.861Z,27.70
2023-09-07T13:11:40.625Z,27.70
2023-09-07T13:14:12.270Z,27.70
2023-09-07T13:16:40.690Z,27.60
2023-09-07T13:19:08.671Z,27.80
2023-09-07T13:36:39.571Z,27.90
2023-09-07T13:39:07.484Z,28.00
2023-09-07T13:41:35.548Z,28.00
2023-09-07T13:44:03.563Z,28.00
2023-09-07T13:46:33.212Z,27.90
2023-09-07T13:49:01.802Z,28.00
2023-09-07T13:51:32.738Z,28.00
2023-09-07T13:54:00.731Z,28.00
2023-09-07T13:56:28.605Z,28.10
2023-09-07T13:58:56.453Z,28.20
2023-09-07T14:01:25.859Z,28.30
2023-09-07T14:03:57.126Z,28.30
2023-09-07T14:06:25.405Z,28.30
2023-09-07T14:08:53.854Z,28.20
2023-09-07T14:11:21.841Z,28.20
2023-09-07T14:13:53.025Z,28.50
2023-09-07T14:16:21.747Z,28.50
2023-09-07T14:21:20.732Z,28.60
2023-09-07T14:23:49.065Z,28.60
2023-09-07T14:26:17.056Z,28.60
2023-09-07T14:28:45.021Z,28.50
2023-09-07T14:31:13.231Z,28.50
2023-09-07T14:33:43.624Z,28.60
2023-09-07T14:36:12.026Z,28.70
2023-09-07T14:38:44.592Z,28.70
2023-09-07T14:41:19.959Z,28.70
2023-09-07T14:43:48.449Z,28.80
2023-09-07T14:46:17.274Z,28.90
2023-09-07T14:48:49.039Z,28.90
2023-09-07T14:51:17.187Z,28.80
2023-09-07T14:53:46.660Z,28.90
2023-09-07T14:56:14.988Z,29.00
2023-09-07T14:58:43.120Z,29.20
2023-09-07T15:01:10.933Z,29.10
2023-09-07T15:03:41.791Z,29.20
2023-09-07T15:06:12.665Z,29.20
2023-09-07T15:08:40.948Z,29.30
2023-09-07T15:11:10.557Z,29.30
2023-09-07T15:13:38.511Z,29.40
2023-09-07T15:16:06.790Z,29.50
2023-09-07T15:21:03.921Z,29.50
2023-09-07T15:23:31.819Z,29.70
2023-09-07T15:25:59.726Z,29.70
2023-09-07T15:30:57.566Z,30.00
2023-09-07T15:33:25.790Z,30.10
2023-09-07T15:35:54.003Z,30.10
2023-09-07T15:38:21.847Z,30.20
2023-09-07T15:40:52.193Z,30.40
2023-09-07T15:43:20.016Z,30.50
2023-09-07T15:45:49.269Z,30.60
2023-09-07T15:48:17.210Z,30.70
2023-09-07T15:50:45.187Z,30.70
2023-09-07T15:53:13.172Z,30.80
2023-09-07T15:55:43.455Z,30.80
2023-09-07T15:58:12.563Z,30.90
2023-09-07T16:03:10.282Z,31.30
2023-09-07T16:05:38.284Z,31.30
2023-09-07T16:08:06.837Z,31.30
2023-09-07T16:10:36.756Z,31.40
2023-09-07T16:13:04.889Z,31.40
2023-09-07T16:15:32.963Z,31.40
2023-09-07T16:18:01.601Z,31.60
2023-09-07T16:20:31.015Z,31.70
2023-09-07T16:22:58.772Z,31.80
2023-09-07T16:25:26.605Z,31.90
2023-09-07T16:27:56.694Z,31.90
2023-09-07T16:30:24.810Z,31.70
2023-09-07T16:32:52.729Z,31.70
2023-09-07T16:35:20.658Z,31.50
2023-09-07T16:37:49.783Z,31.40
2023-09-07T16:40:19.297Z,31.40
2023-09-07T16:42:47.070Z,31.40
2023-09-07T16:45:14.945Z,31.30
2023-09-07T16:47:42.762Z,31.30
2023-09-07T16:50:11.562Z,31.20
2023-09-07T16:52:39.352Z,31.10
2023-09-07T16:55:09.251Z,31.00
2023-09-07T16:57:37.208Z,30.90
2023-09-07T17:00:06.321Z,30.50
2023-09-07T17:02:34.412Z,30.30
2023-09-07T17:05:02.263Z,30.30
2023-09-07T17:09:58.304Z,30.00
2023-09-07T17:12:27.499Z,29.90
2023-09-07T17:14:55.425Z,29.90
2023-09-07T17:17:23.327Z,29.70
2023-09-07T17:22:19.427Z,29.40
2023-09-07T17:27:15.532Z,29.30
2023-09-07T17:29:45.090Z,29.00
2023-09-07T17:32:12.994Z,29.00
2023-09-07T17:34:40.894Z,29.00
2023-09-07T17:37:08.746Z,28.70
2023-09-07T17:42:05.981Z,28.70
2023-09-07T17:44:33.826Z,28.70
2023-09-07T17:49:31.264Z,28.90
2023-09-07T17:54:27.749Z,28.90
2023-09-07T17:56:55.784Z,28.80
2023-09-07T17:59:23.700Z,28.60
2023-09-07T18:01:51.728Z,28.50
2023-09-07T18:04:21.046Z,28.20
2023-09-07T18:06:49.076Z,28.10
2023-09-07T18:09:16.941Z,27.80
2023-09-07T18:11:46.136Z,27.60
2023-09-07T18:14:14.919Z,27.60
2023-09-07T18:16:43.643Z,27.50
2023-09-07T18:19:12.468Z,27.40
2023-09-07T18:21:41.877Z,27.50
2023-09-07T18:24:10.065Z,27.40
2023-09-07T18:26:38.057Z,27.30
2023-09-07T18:29:05.943Z,27.20
2023-09-07T18:31:33.801Z,27.20
2023-09-07T18:34:04.336Z,27.10
2023-09-07T18:36:33.083Z,27.10
2023-09-07T18:39:02.909Z,27.10
2023-09-07T18:41:30.733Z,27.00
2023-09-07T18:43:58.509Z,27.00
2023-09-07T18:46:26.361Z,27.00
2023-09-07T18:48:54.139Z,26.90
2023-09-07T18:51:22.045Z,26.90
2023-09-07T18:53:49.873Z,26.90
2023-09-07T18:56:19.061Z,26.90
2023-09-07T18:58:46.893Z,26.90
2023-09-07T19:01:16.280Z,26.80
2023-09-07T19:03:47.754Z,26.80
2023-09-07T19:06:16.091Z,26.80
2023-09-07T19:08:44.604Z,26.70
2023-09-07T19:11:12.916Z,26.70
2023-09-07T19:13:42.074Z,26.70
2023-09-07T19:16:14.127Z,26.60
2023-09-07T19:18:42.052Z,26.50
2023-09-07T19:21:23.456Z,26.50
2023-09-07T19:23:52.575Z,26.50
2023-09-07T19:26:31.620Z,26.40
2023-09-07T19:29:02.460Z,26.30
2023-09-07T19:33:59.650Z,26.20
2023-09-07T19:36:29.130Z,26.20
2023-09-07T19:39:00.033Z,26.10
2023-09-07T19:41:30.138Z,26.10
2023-09-07T19:43:58.196Z,26.10
2023-09-07T19:46:27.578Z,26.00
2023-09-07T19:48:56.143Z,25.90
2023-09-07T19:51:25.237Z,25.90
2023-09-07T19:56:24.604Z,25.80
2023-09-07T19:58:54.179Z,25.60
2023-09-07T20:01:23.693Z,25.60
2023-09-07T20:03:56.170Z,25.50
2023-09-07T20:06:26.535Z,25.30
2023-09-07T20:08:55.001Z,25.30
2023-09-07T20:11:22.953Z,25.20
2023-09-07T20:13:50.937Z,25.30
2023-09-07T20:18:47.847Z,25.20
2023-09-07T20:21:17.128Z,25.20
2023-09-07T20:23:44.942Z,25.10
2023-09-07T20:26:12.767Z,25.10
2023-09-07T20:28:42.341Z,25.10
2023-09-07T20:31:10.951Z,25.10
2023-09-07T20:33:39.049Z,25.20
2023-09-07T20:36:08.120Z,25.10
2023-09-07T20:38:37.738Z,25.10
2023-09-07T20:41:06.382Z,25.00
2023-09-07T20:43:34.465Z,25.00
2023-09-07T20:46:02.740Z,25.10
2023-09-07T20:48:32.398Z,25.10
2023-09-07T20:53:31.113Z,25.10
2023-09-07T20:56:00.517Z,25.00
2023-09-07T21:03:25.810Z,24.90
2023-09-07T21:05:53.994Z,24.80
2023-09-07T21:08:21.805Z,24.80
2023-09-07T21:10:49.706Z,24.80
2023-09-07T21:13:18.953Z,24.70
2023-09-07T21:15:46.814Z,24.70
2023-09-07T21:18:14.838Z,24.70
2023-09-07T21:20:43.018Z,24.70
2023-09-07T21:23:13.469Z,24.70
2023-09-07T21:25:41.576Z,24.70
2023-09-07T21:28:09.450Z,24.60
2023-09-07T21:30:38.860Z,24.60
2023-09-07T21:33:07.199Z,24.40
2023-09-07T21:38:03.337Z,24.30
2023-09-07T21:40:31.211Z,24.00
2023-09-07T21:43:00.398Z,24.00
2023-09-07T21:45:28.594Z,24.00
2023-09-07T21:47:57.863Z,23.90
2023-09-07T21:50:26.147Z,24.00
2023-09-07T21:52:54.212Z,24.00
2023-09-07T21:55:22.270Z,23.90
2023-09-07T21:57:50.143Z,23.90
2023-09-07T22:00:18.209Z,23.80
2023-09-07T22:02:46.311Z,23.70
2023-09-07T22:05:15.720Z,23.70
2023-09-07T22:07:44.795Z,23.50
2023-09-07T22:10:12.989Z,23.40
2023-09-07T22:12:40.896Z,23.30
2023-09-07T22:15:09.620Z,23.20
2023-09-07T22:17:40.038Z,23.20
2023-09-07T22:20:08.777Z,23.00
2023-09-07T22:22:37.995Z,23.10
2023-09-07T22:25:07.601Z,23.00
2023-09-07T22:27:35.459Z,22.90
2023-09-07T22:32:32.839Z,22.90
2023-09-07T22:35:00.659Z,22.90
2023-09-07T22:37:28.530Z,22.90
2023-09-07T22:39:57.739Z,22.90
2023-09-07T22:42:25.472Z,22.90
2023-09-07T22:47:21.980Z,22.90
2023-09-07T22:49:49.861Z,22.80
2023-09-07T22:54:46.966Z,22.90
2023-09-07T22:57:16.483Z,22.80
2023-09-07T22:59:44.383Z,22.90
2023-09-07T23:02:12.574Z,22.90
2023-09-07T23:04:40.511Z,23.00
2023-09-07T23:07:08.358Z,23.00
2023-09-07T23:09:36.246Z,23.00
2023-09-07T23:12:04.708Z,23.00
2023-09-07T23:14:33.986Z,23.00
2023-09-07T23:17:02.208Z,23.00
2023-09-07T23:24:28.289Z,22.70
2023-09-07T23:26:56.221Z,22.70
2023-09-07T23:29:25.308Z,22.70
2023-09-07T23:31:54.638Z,22.70
2023-09-07T23:34:22.603Z,22.70
2023-09-07T23:36:50.476Z,22.80
2023-09-07T23:39:18.386Z,22.80
2023-09-07T23:41:46.405Z,22.70
2023-09-07T23:44:14.264Z,22.70
2023-09-07T23:46:42.201Z,22.30
2023-09-07T23:49:11.402Z,22.10
2023-09-07T23:51:39.234Z,22.00
2023-09-07T23:54:07.153Z,21.70
2023-09-07T23:56:34.916Z,21.70
2023-09-07T23:59:02.716Z,21.30
